Route Details

Aircraft Information
Group: Boeing 737 Only
Types: B738
Route Data
Distance: 440nm
Duration: 1h 19m
Origin METAR: MMMX 010445Z 16003KT 10SM SKC 17/M01 A3032 NOSIG RMK HZY
Dest. METAR: MMTC 010349Z 34016KT 4SM SCT035 BKN100 21/05 A3005 RMK 8/570 BLDU
Freight Data
(for Feb 1, 2023)
Load Factor:
75%
Manifested Cargo: 39,208lbs
Financial History
Total Freight: 200,131lbs
Average Load: 0lbs/flt
Fuel Used: 53,049lbs
Avg. Fuel Used: 0lbs/flt
Fuel Expense: $30,517
Avg. Fuel Expense: $0
Avg. Fuel Cost: $0/lbs
Total Gross Income: $616,462
Pilot Pay: $1,843
Total Expenses: $100,688
Total Revenue: $481,867
Average Revenue: $0

Capitol Logistics 794




MMMX
Benito Juárez International Airport
Mexico City, MX
MMTC
Francisco Sarabia International Airport
Torreon, MX

Activity Log

Date Flight Route Aircraft Duration
10/31/2022 CPX794 Not Available B738 1h 44m
09/13/2022 CPX794 Not Available B738 1h 31m
08/26/2022 CPX794 Not Available B738 1h 46m
07/03/2022 CPX3131 ATUR1A ATURO UT135 AXABA J13 TRC B738 1h 21m
06/25/2022 CPX3131 ATUR1A ATURO UT135 AXABA J13 TRC B752 1h 30m
06/18/2022 CPX3131 ATUR2B ATURO UT135 AXABA J13 TRC DCT B738 1h 30m
12/26/2021 CPX3131 ATUR1A ATURO UT135 AXABA J13 TRC B738 1h 21m